createdAt,value
2023-03-27T00:01:26.404Z,15.57
2023-03-27T00:11:31.365Z,17.05
2023-03-27T00:21:34.461Z,19.77
2023-03-27T00:31:37.406Z,17.98
2023-03-27T00:41:40.114Z,17.08
2023-03-27T00:51:46.941Z,15.32
2023-03-27T01:02:03.489Z,16.38
2023-03-27T01:12:36.191Z,15.88
2023-03-27T01:22:53.421Z,13.63
2023-03-27T01:33:26.785Z,16.88
2023-03-27T01:43:57.554Z,15.68
2023-03-27T01:54:06.041Z,13.85
2023-03-27T02:04:14.791Z,13.15
2023-03-27T02:14:23.876Z,15.50
2023-03-27T02:24:30.950Z,15.00
2023-03-27T02:34:50.540Z,14.32
2023-03-27T02:45:08.462Z,14.07
2023-03-27T02:55:20.258Z,13.60
2023-03-27T03:05:24.094Z,16.23
2023-03-27T03:15:32.970Z,18.73
2023-03-27T03:25:34.922Z,15.93
2023-03-27T03:35:36.845Z,13.77
2023-03-27T03:45:38.756Z,13.30
2023-03-27T03:55:52.630Z,14.93
2023-03-27T04:05:54.609Z,13.35
2023-03-27T04:16:06.132Z,13.65
2023-03-27T04:26:27.490Z,18.92
2023-03-27T04:36:35.754Z,19.05
2023-03-27T04:46:38.265Z,17.50
2023-03-27T04:56:42.354Z,16.33
2023-03-27T05:06:50.430Z,15.65
2023-03-27T05:16:54.573Z,22.73
2023-03-27T05:27:03.999Z,18.63
2023-03-27T05:37:16.730Z,20.75
2023-03-27T05:47:58.099Z,18.88
2023-03-27T05:58:10.170Z,14.60
2023-03-27T06:08:14.294Z,11.48
2023-03-27T06:18:16.472Z,8.05
2023-03-27T06:28:21.566Z,9.40
2023-03-27T06:38:24.027Z,6.55
2023-03-27T06:48:27.234Z,7.43
2023-03-27T06:58:31.779Z,4.22
2023-03-27T07:08:40.745Z,6.10
2023-03-27T07:18:42.858Z,3.25
2023-03-27T07:28:48.204Z,3.65
2023-03-27T07:38:52.641Z,4.25
2023-03-27T07:48:55.905Z,5.90
2023-03-27T07:58:59.283Z,7.03
2023-03-27T08:09:06.013Z,5.68
2023-03-27T08:19:08.059Z,4.65
2023-03-27T08:29:14.061Z,3.42
2023-03-27T08:39:16.152Z,5.75
2023-03-27T08:49:22.694Z,3.40
2023-03-27T08:59:30.658Z,3.70
2023-03-27T09:09:32.651Z,3.75
2023-03-27T09:20:19.420Z,1.17
2023-03-27T09:30:29.490Z,3.25
2023-03-27T09:40:48.792Z,3.80
2023-03-27T10:01:20.576Z,1.80
2023-03-27T10:11:33.350Z,3.85
2023-03-27T10:21:51.177Z,4.00
2023-03-27T10:31:55.880Z,2.75
2023-03-27T10:42:09.528Z,4.82
2023-03-27T10:52:16.063Z,2.90
2023-03-27T11:02:28.191Z,0.80
2023-03-27T11:12:34.083Z,1.25
2023-03-27T11:22:43.696Z,3.17
2023-03-27T11:33:25.835Z,2.75
2023-03-27T11:43:30.080Z,1.60
2023-03-27T11:53:41.475Z,1.38
2023-03-27T12:04:30.376Z,1.00
2023-03-27T12:14:48.364Z,0.90
2023-03-27T12:25:17.198Z,3.78
2023-03-27T12:35:24.861Z,3.85
2023-03-27T12:45:29.734Z,2.45
2023-03-27T12:55:37.205Z,1.52
2023-03-27T13:06:20.089Z,1.23
2023-03-27T13:17:07.258Z,2.58
2023-03-27T13:27:29.434Z,2.05
2023-03-27T13:37:36.627Z,2.95
2023-03-27T13:47:56.390Z,10.93
2023-03-27T14:08:13.456Z,2.00
2023-03-27T14:18:27.124Z,1.58
2023-03-27T14:28:59.289Z,1.33
2023-03-27T14:39:17.308Z,0.70
2023-03-27T14:49:24.774Z,1.40
2023-03-27T14:59:43.161Z,1.15
2023-03-27T15:09:46.850Z,1.33
2023-03-27T15:20:10.347Z,1.83
2023-03-27T15:30:34.191Z,2.72
2023-03-27T15:40:49.268Z,1.10
2023-03-27T15:51:01.030Z,0.95
2023-03-27T16:01:18.643Z,1.85
2023-03-27T16:11:44.558Z,1.10
2023-03-27T16:21:58.151Z,2.33
2023-03-27T16:32:18.471Z,3.88
2023-03-27T16:42:29.116Z,2.33
2023-03-27T16:52:32.058Z,3.45
2023-03-27T17:02:47.502Z,1.58
2023-03-27T17:12:59.016Z,1.45
2023-03-27T17:23:01.239Z,2.08
2023-03-27T17:33:05.401Z,1.13
2023-03-27T17:43:08.853Z,1.40
2023-03-27T17:53:13.094Z,1.58
2023-03-27T18:03:18.068Z,3.50
2023-03-27T18:13:21.911Z,2.53
2023-03-27T18:23:24.860Z,4.05
2023-03-27T18:33:28.582Z,4.93
2023-03-27T18:43:32.870Z,5.03
2023-03-27T18:53:53.152Z,1.42
2023-03-27T19:03:56.420Z,2.80
2023-03-27T19:14:00.545Z,0.65
2023-03-27T19:25:38.212Z,2.50
2023-03-27T19:34:54.994Z,1.60
2023-03-27T19:45:00.296Z,2.22
2023-03-27T19:55:04.297Z,4.25
2023-03-27T20:05:09.219Z,3.60
2023-03-27T20:15:13.581Z,6.63
2023-03-27T20:25:16.227Z,4.40
2023-03-27T20:35:24.313Z,5.88
2023-03-27T20:45:27.279Z,5.10
2023-03-27T20:55:37.539Z,3.50
2023-03-27T21:05:43.545Z,6.57
2023-03-27T21:15:45.605Z,4.07
2023-03-27T21:25:50.897Z,6.32
2023-03-27T21:35:55.858Z,6.95
2023-03-27T21:46:03.785Z,10.15
2023-03-27T21:56:06.562Z,9.32
2023-03-27T22:06:12.947Z,7.00
2023-03-27T22:16:17.723Z,9.75
2023-03-27T22:26:21.786Z,7.80
2023-03-27T22:36:24.810Z,17.92
2023-03-27T22:46:26.881Z,23.33
2023-03-27T22:56:29.044Z,21.77
2023-03-27T23:06:31.275Z,9.85
2023-03-27T23:16:33.437Z,11.70
2023-03-27T23:26:35.434Z,8.45
2023-03-27T23:36:37.808Z,11.00
2023-03-27T23:46:41.854Z,11.90
2023-03-27T23:56:43.788Z,13.25
